Time;durP1;ratioP1;P1;durP2;ratioP2;P2;SDS_P1;SDS_P2;PMS_P1;PMS_P2;Temp;Humidity;BMP_temperature;BMP_pressure;BME280_temperature;BME280_humidity;BME280_pressure;Samples;Min_cycle;Max_cycle;Signal;HPM_P1;HPM_P2
2021/08/15 00:01:37;;;;;;;11.93;3.80;;;;;;;16.32;92.12;100809.69;5262135;28;20270;-79
2021/08/15 00:04:07;;;;;;;11.70;3.95;;;;;;;16.08;94.06;100808.41;5256913;28;20441;-78
2021/08/15 00:06:37;;;;;;;8.95;3.67;;;;;;;16.07;94.17;100814.63;5262008;28;20046;-77
2021/08/15 00:09:08;;;;;;;10.52;4.03;;;;;;;16.19;92.49;100803.41;5244253;28;20032;-78
2021/08/15 00:11:38;;;;;;;12.43;4.20;;;;;;;16.28;93.51;100805.53;5266614;28;20544;-79
2021/08/15 00:14:08;;;;;;;9.65;4.05;;;;;;;16.41;92.89;100806.59;5249396;28;20024;-79
2021/08/15 00:16:38;;;;;;;11.15;3.70;;;;;;;16.47;93.34;100795.69;5266240;28;20043;-77
2021/08/15 00:19:09;;;;;;;10.35;4.00;;;;;;;16.49;93.93;100797.31;5245485;28;20477;-77
2021/08/15 00:21:39;;;;;;;12.27;4.47;;;;;;;16.50;93.43;100793.75;5263660;28;20104;-77
2021/08/15 00:24:09;;;;;;;13.15;4.55;;;;;;;16.55;94.20;100789.03;5262753;28;20512;-77
2021/08/15 00:26:40;;;;;;;15.18;4.32;;;;;;;16.60;93.66;100797.59;5262534;28;20040;-77
2021/08/15 00:29:10;;;;;;;12.48;4.47;;;;;;;16.66;94.15;100801.63;5262929;28;20024;-77
2021/08/15 00:31:40;;;;;;;15.30;4.97;;;;;;;16.73;93.43;100793.28;5245582;28;20027;-77
2021/08/15 00:34:11;;;;;;;10.18;3.97;;;;;;;16.73;93.41;100793.28;5263898;28;20270;-77
2021/08/15 00:36:41;;;;;;;11.20;4.50;;;;;;;16.75;92.77;100796.69;5263040;28;20020;-77
2021/08/15 00:39:11;;;;;;;14.20;4.32;;;;;;;16.47;93.79;100801.84;5263775;28;20183;-77
2021/08/15 00:41:42;;;;;;;12.05;4.05;;;;;;;16.16;95.50;100801.78;5245017;28;20805;-77
2021/08/15 00:44:12;;;;;;;12.43;4.18;;;;;;;15.94;96.32;100798.63;5263695;28;20024;-77
2021/08/15 00:46:43;;;;;;;9.50;4.43;;;;;;;15.92;95.52;100803.13;5262809;28;20474;-77
2021/08/15 00:49:13;;;;;;;9.55;3.95;;;;;;;16.08;94.52;100801.34;5263076;28;20414;-77
2021/08/15 00:51:43;;;;;;;8.90;4.05;;;;;;;16.05;95.75;100800.69;5262914;28;20028;-76
2021/08/15 00:54:14;;;;;;;9.97;4.47;;;;;;;16.00;96.21;100800.91;5263038;28;20021;-77
2021/08/15 00:56:54;;;;;;;14.32;4.35;;;;;;;16.02;96.27;100796.41;5244834;28;20437;-77
2021/08/15 00:59:25;;;;;;;10.15;4.13;;;;;;;15.94;95.69;100800.41;5263111;28;20080;-77
2021/08/15 01:01:58;;;;;;;9.60;4.13;;;;;;;15.98;96.46;100805.44;5263432;28;20024;-77
2021/08/15 01:04:28;;;;;;;10.05;4.43;;;;;;;16.09;96.43;100805.72;5241113;28;20073;-77
2021/08/15 01:06:59;;;;;;;11.55;4.45;;;;;;;16.38;93.83;100804.97;5262326;28;20028;-77
2021/08/15 01:09:29;;;;;;;8.80;3.93;;;;;;;16.34;93.94;100799.91;5263592;28;20063;-77
2021/08/15 01:12:00;;;;;;;11.60;4.60;;;;;;;15.94;95.58;100793.34;5263470;28;20555;-77
2021/08/15 01:14:30;;;;;;;9.73;3.90;;;;;;;16.00;96.95;100798.28;5245567;28;20114;-77
2021/08/15 01:17:00;;;;;;;11.90;4.53;;;;;;;16.04;94.64;100796.34;5244844;28;20068;-77
2021/08/15 01:19:31;;;;;;;11.60;4.43;;;;;;;16.15;95.30;100786.91;5263630;28;20028;-77
2021/08/15 01:22:02;;;;;;;10.35;4.47;;;;;;;15.96;95.06;100788.84;5263915;28;20077;-77
2021/08/15 01:24:32;;;;;;;10.40;4.10;;;;;;;15.92;94.02;100784.69;5263666;28;20035;-77
2021/08/15 01:27:04;;;;;;;8.60;4.13;;;;;;;16.05;93.01;100792.78;5263424;28;20107;-77
2021/08/15 01:29:34;;;;;;;8.88;4.10;;;;;;;16.05;94.08;100793.59;5263508;28;20107;-77
2021/08/15 01:32:05;;;;;;;14.88;4.50;;;;;;;16.02;92.81;100792.94;5263962;28;20108;-76
2021/08/15 01:34:35;;;;;;;10.88;4.32;;;;;;;15.51;97.51;100793.91;5263810;28;20043;-77
2021/08/15 01:37:10;;;;;;;11.75;4.30;;;;;;;15.63;97.17;100788.00;5262500;28;20030;-77
2021/08/15 01:39:42;;;;;;;10.65;4.70;;;;;;;15.84;95.40;100791.28;5244765;28;20034;-77
2021/08/15 01:42:12;;;;;;;13.02;4.72;;;;;;;15.84;94.20;100783.38;5264894;28;20024;-77
2021/08/15 01:44:42;;;;;;;9.43;4.60;;;;;;;15.81;94.26;100786.16;5267172;28;20028;-77
2021/08/15 01:47:13;;;;;;;10.45;4.57;;;;;;;15.80;95.34;100784.47;5267030;28;20087;-77
2021/08/15 01:49:43;;;;;;;9.45;4.18;;;;;;;15.58;96.17;100781.28;5267483;28;20047;-77
2021/08/15 01:52:13;;;;;;;10.85;4.88;;;;;;;15.41;96.71;100784.78;5267127;28;20031;-77
2021/08/15 01:54:43;;;;;;;14.20;4.65;;;;;;;15.62;96.80;100775.75;5267065;28;20035;-77
2021/08/15 01:57:14;;;;;;;12.93;4.95;;;;;;;15.26;97.44;100772.38;5266901;28;20390;-77
2021/08/15 01:59:44;;;;;;;9.30;4.13;;;;;;;15.06;100.00;100771.69;5267733;28;20024;-77
2021/08/15 02:02:14;;;;;;;11.20;4.90;;;;;;;15.31;98.61;100770.38;5268419;28;20085;-78
2021/08/15 02:04:45;;;;;;;12.43;4.30;;;;;;;15.39;97.53;100770.81;5267719;28;20107;-77
2021/08/15 02:07:15;;;;;;;10.33;4.63;;;;;;;15.47;97.21;100775.69;5247722;28;20020;-77
2021/08/15 02:09:45;;;;;;;10.90;4.80;;;;;;;15.35;96.94;100779.81;5266462;28;20355;-77
2021/08/15 02:12:15;;;;;;;10.65;4.95;;;;;;;14.97;99.02;100762.47;5266738;28;20064;-77
2021/08/15 02:14:46;;;;;;;12.57;4.40;;;;;;;14.82;100.00;100755.34;5266643;28;20111;-77
2021/08/15 02:17:16;;;;;;;13.48;5.28;;;;;;;14.77;100.00;100755.66;5247211;28;20023;-77
2021/08/15 02:19:46;;;;;;;15.23;5.25;;;;;;;14.73;100.00;100762.00;5266606;28;20077;-77
2021/08/15 02:22:16;;;;;;;15.10;5.53;;;;;;;14.71;100.00;100754.19;5266377;28;20717;-77
2021/08/15 02:24:47;;;;;;;11.32;4.85;;;;;;;14.95;100.00;100759.06;5267288;28;20024;-77
2021/08/15 02:27:17;;;;;;;14.73;5.20;;;;;;;14.91;100.00;100757.53;5247581;28;20437;-77
2021/08/15 02:29:47;;;;;;;12.23;4.97;;;;;;;14.93;100.00;100754.81;5267249;28;20297;-78
2021/08/15 02:32:17;;;;;;;14.90;5.35;;;;;;;15.33;98.31;100750.09;5248552;28;20286;-77
2021/08/15 02:34:48;;;;;;;12.20;5.00;;;;;;;15.31;96.68;100740.56;5267211;28;20055;-77
2021/08/15 02:37:18;;;;;;;14.23;5.25;;;;;;;15.14;97.59;100738.78;5266295;28;20048;-77
2021/08/15 02:39:49;;;;;;;12.95;5.20;;;;;;;14.87;99.79;100745.44;5266137;28;20028;-77
2021/08/15 02:42:19;;;;;;;11.77;5.25;;;;;;;14.83;100.00;100754.41;5267278;28;20059;-77
2021/08/15 02:44:50;;;;;;;13.50;5.60;;;;;;;14.69;100.00;100752.53;5266927;28;20047;-77
2021/08/15 02:47:20;;;;;;;11.30;5.07;;;;;;;14.87;100.00;100736.69;5267430;28;20290;-77
2021/08/15 02:49:51;;;;;;;11.02;5.50;;;;;;;14.96;100.00;100752.00;5267287;28;20285;-77
2021/08/15 02:52:21;;;;;;;20.10;5.95;;;;;;;14.78;100.00;100745.03;5248733;28;20024;-78
2021/08/15 02:54:51;;;;;;;14.57;5.70;;;;;;;14.28;100.00;100748.44;5265450;28;20039;-77
2021/08/15 02:57:22;;;;;;;11.98;5.13;;;;;;;14.68;100.00;100746.44;5266268;28;20421;-77
2021/08/15 02:59:53;;;;;;;13.05;5.05;;;;;;;14.60;100.00;100745.13;5248566;28;20023;-78
2021/08/15 03:02:23;;;;;;;10.82;5.28;;;;;;;14.51;100.00;100754.31;5248696;28;20549;-77
2021/08/15 03:04:53;;;;;;;12.57;5.53;;;;;;;14.38;100.00;100750.56;5266129;28;20027;-78
2021/08/15 03:07:26;;;;;;;16.27;5.65;;;;;;;14.28;100.00;100753.72;5266269;28;20378;-77
2021/08/15 03:09:56;;;;;;;12.45;6.25;;;;;;;14.32;100.00;100755.25;5266205;28;20020;-77
2021/08/15 03:12:26;;;;;;;11.18;5.20;;;;;;;14.48;100.00;100743.94;5247564;28;20047;-77
2021/08/15 03:14:57;;;;;;;13.25;5.80;;;;;;;14.36;100.00;100747.16;5265855;28;20294;-77
2021/08/15 03:17:27;;;;;;;11.60;5.60;;;;;;;14.40;100.00;100753.13;5265197;28;20028;-77
2021/08/15 03:19:57;;;;;;;16.25;5.78;;;;;;;14.21;100.00;100744.38;5266441;28;20394;-77
2021/08/15 03:22:28;;;;;;;16.83;5.93;;;;;;;14.05;100.00;100751.28;5262295;28;20223;-77
2021/08/15 03:24:59;;;;;;;12.17;5.93;;;;;;;14.11;100.00;100756.25;5265579;28;20112;-77
2021/08/15 03:27:29;;;;;;;14.27;6.28;;;;;;;14.12;100.00;100752.69;5265292;28;20282;-77
2021/08/15 03:29:59;;;;;;;15.68;6.38;;;;;;;14.22;100.00;100740.88;5266641;28;20274;-78
2021/08/15 03:32:30;;;;;;;15.32;6.35;;;;;;;14.14;100.00;100750.84;5266067;28;20077;-78
2021/08/15 03:35:00;;;;;;;13.07;6.38;;;;;;;14.10;100.00;100744.88;5247797;28;20514;-77
2021/08/15 03:37:30;;;;;;;14.20;6.15;;;;;;;14.01;100.00;100739.19;5265889;28;20035;-77
2021/08/15 03:40:01;;;;;;;15.63;6.07;;;;;;;14.02;100.00;100740.91;5265662;28;20100;-77
2021/08/15 03:42:32;;;;;;;15.15;5.93;;;;;;;14.07;100.00;100738.94;5266651;28;20181;-77
2021/08/15 03:45:04;;;;;;;17.60;5.70;;;;;;;14.13;100.00;100723.72;5265655;28;20549;-77
2021/08/15 03:47:34;;;;;;;17.50;6.28;;;;;;;14.07;100.00;100720.53;5265128;28;20060;-78
2021/08/15 03:50:08;;;;;;;15.45;6.72;;;;;;;13.72;100.00;100722.16;5264468;28;20047;-78
2021/08/15 03:52:40;;;;;;;15.48;6.18;;;;;;;13.97;100.00;100732.38;5265619;28;20593;-78
2021/08/15 03:55:11;;;;;;;15.70;6.57;;;;;;;13.98;100.00;100736.72;5265972;28;20035;-77
2021/08/15 03:57:42;;;;;;;16.75;6.72;;;;;;;13.97;100.00;100729.75;5247047;28;20028;-77
2021/08/15 04:00:13;;;;;;;17.25;6.53;;;;;;;13.58;100.00;100714.06;5265653;28;20378;-78
2021/08/15 04:02:43;;;;;;;17.98;7.10;;;;;;;13.60;100.00;100724.50;5265911;28;20385;-77
2021/08/15 04:05:13;;;;;;;15.00;7.03;;;;;;;13.63;100.00;100713.84;5246632;28;20020;-78
2021/08/15 04:07:43;;;;;;;14.63;6.45;;;;;;;13.72;100.00;100706.41;5246859;28;20060;-78
2021/08/15 04:10:14;;;;;;;14.95;6.53;;;;;;;13.67;100.00;100704.91;5265943;28;20026;-78
2021/08/15 04:12:44;;;;;;;13.70;6.53;;;;;;;13.59;100.00;100705.25;5265672;28;20094;-77
2021/08/15 04:15:14;;;;;;;15.43;7.05;;;;;;;13.44;100.00;100705.09;5264971;28;20069;-77
2021/08/15 04:17:45;;;;;;;19.75;7.40;;;;;;;13.45;100.00;100707.69;5264395;28;20390;-78
2021/08/15 04:20:15;;;;;;;19.77;7.50;;;;;;;13.47;100.00;100708.44;5265275;28;20024;-78
2021/08/15 04:22:45;;;;;;;14.25;6.45;;;;;;;13.72;100.00;100716.06;5265503;28;20278;-78
2021/08/15 04:25:16;;;;;;;15.32;6.60;;;;;;;13.70;100.00;100708.25;5264651;28;20111;-78
2021/08/15 04:27:46;;;;;;;15.80;6.57;;;;;;;13.72;100.00;100710.81;5265471;28;20035;-78
2021/08/15 04:30:17;;;;;;;15.98;6.57;;;;;;;13.69;100.00;100716.19;5246860;28;20080;-77
2021/08/15 04:32:47;;;;;;;14.60;7.00;;;;;;;13.79;100.00;100717.47;5247252;28;20043;-77
2021/08/15 04:35:17;;;;;;;14.30;6.57;;;;;;;13.90;100.00;100721.31;5264790;28;20035;-78
2021/08/15 04:37:48;;;;;;;14.20;6.50;;;;;;;13.93;100.00;100709.81;5245386;28;20667;-78
2021/08/15 04:40:18;;;;;;;13.40;6.20;;;;;;;14.13;100.00;100709.72;5264749;28;20097;-78
2021/08/15 04:42:48;;;;;;;19.85;6.70;;;;;;;14.39;100.00;100704.09;5265298;28;20028;-78
2021/08/15 04:45:18;;;;;;;14.40;6.27;;;;;;;14.44;100.00;100702.09;5246938;28;20384;-78
2021/08/15 04:47:49;;;;;;;15.00;6.93;;;;;;;14.46;100.00;100689.69;5245876;28;20298;-77
2021/08/15 04:50:19;;;;;;;13.30;6.03;;;;;;;14.58;100.00;100694.38;5246401;28;20031;-77
2021/08/15 04:52:49;;;;;;;12.15;6.10;;;;;;;14.31;100.00;100691.31;5260566;28;20043;-77
2021/08/15 04:55:19;;;;;;;17.47;6.30;;;;;;;14.09;100.00;100689.75;5246611;28;20454;-77
2021/08/15 04:57:50;;;;;;;19.08;6.93;;;;;;;14.10;100.00;100687.03;5265323;28;20269;-78
2021/08/15 05:00:20;;;;;;;18.60;6.82;;;;;;;14.44;100.00;100687.13;5247147;28;20115;-77
2021/08/15 05:02:50;;;;;;;17.10;6.63;;;;;;;14.51;100.00;100682.44;5264994;28;20392;-77
2021/08/15 05:05:21;;;;;;;15.50;6.47;;;;;;;14.75;100.00;100691.75;5264837;28;20039;-78
2021/08/15 05:07:52;;;;;;;13.23;6.53;;;;;;;14.87;100.00;100665.66;5264605;28;20393;-77
2021/08/15 05:10:22;;;;;;;18.48;7.18;;;;;;;14.95;100.00;100668.72;5265275;28;20282;-79
2021/08/15 05:12:52;;;;;;;16.90;6.55;;;;;;;15.02;100.00;100660.44;5264339;28;20027;-78
2021/08/15 05:15:23;;;;;;;23.00;6.73;;;;;;;14.80;100.00;100668.66;5264881;28;20092;-78
2021/08/15 05:17:53;;;;;;;15.65;7.43;;;;;;;14.76;100.00;100672.41;5266587;28;20344;-77
2021/08/15 05:20:23;;;;;;;16.77;7.75;;;;;;;14.71;100.00;100667.34;5249959;28;20028;-78
2021/08/15 05:22:54;;;;;;;16.20;6.93;;;;;;;15.11;100.00;100653.81;5268848;28;20320;-77
2021/08/15 05:25:25;;;;;;;13.98;6.93;;;;;;;14.94;100.00;100659.13;5268528;28;20050;-78
2021/08/15 05:27:56;;;;;;;17.73;7.35;;;;;;;15.21;100.00;100657.69;5268629;28;20020;-78
2021/08/15 05:30:26;;;;;;;18.73;6.47;;;;;;;15.44;100.00;100662.59;5269685;28;20035;-78
2021/08/15 05:32:57;;;;;;;17.75;6.60;;;;;;;15.43;100.00;100659.13;5268803;28;20024;-77
2021/08/15 05:35:27;;;;;;;14.55;6.80;;;;;;;15.27;100.00;100668.75;5250146;28;20258;-78
2021/08/15 05:37:57;;;;;;;17.13;7.28;;;;;;;15.36;100.00;100663.00;5268155;28;20028;-78
2021/08/15 05:40:28;;;;;;;14.70;6.57;;;;;;;15.60;100.00;100666.09;5264073;28;20401;-78
2021/08/15 05:42:58;;;;;;;15.27;6.97;;;;;;;15.50;100.00;100662.28;5268955;28;20408;-77
2021/08/15 05:45:31;;;;;;;13.02;6.65;;;;;;;15.88;100.00;100667.13;5267656;28;20501;-78
2021/08/15 05:48:02;;;;;;;13.88;6.10;;;;;;;16.81;100.00;100654.63;5268429;28;20023;-78
2021/08/15 05:50:32;;;;;;;14.95;6.53;;;;;;;17.25;97.65;100651.94;5263621;28;20039;-78
2021/08/15 05:53:02;;;;;;;15.07;6.80;;;;;;;17.00;100.00;100659.66;5249782;28;20081;-78
2021/08/15 05:55:33;;;;;;;14.98;6.88;;;;;;;17.44;100.00;100660.44;5267606;28;20593;-78
2021/08/15 05:58:03;;;;;;;17.77;6.65;;;;;;;17.90;97.07;100651.31;5267464;28;20079;-78
2021/08/15 06:00:33;;;;;;;17.30;6.25;;;;;;;18.81;92.55;100647.81;5269012;28;20031;-78
2021/08/15 06:03:04;;;;;;;13.87;6.40;;;;;;;18.88;92.84;100643.78;5267949;28;20097;-78
2021/08/15 06:05:34;;;;;;;15.63;6.60;;;;;;;18.51;94.18;100652.53;5250730;28;20652;-78
2021/08/15 06:08:04;;;;;;;14.55;6.50;;;;;;;18.55;92.96;100650.53;5248927;28;20114;-78
2021/08/15 06:10:37;;;;;;;14.98;6.47;;;;;;;18.56;92.50;100661.03;5268418;28;20502;-78
2021/08/15 06:13:09;;;;;;;17.20;6.85;;;;;;;18.33;95.72;100659.03;5268531;28;20020;-78
2021/08/15 06:15:39;;;;;;;12.93;6.43;;;;;;;18.22;95.97;100652.72;5267950;28;20023;-78
2021/08/15 06:18:09;;;;;;;15.02;6.35;;;;;;;18.68;94.83;100656.72;5269526;28;20047;-79
2021/08/15 06:20:40;;;;;;;17.48;6.68;;;;;;;18.82;93.98;100653.03;5269817;28;20027;-79
2021/08/15 06:23:10;;;;;;;17.43;6.47;;;;;;;19.20;91.90;100659.22;5251938;28;20701;-79
2021/08/15 06:25:40;;;;;;;15.40;6.90;;;;;;;19.12;93.10;100664.16;5269500;28;20277;-79
2021/08/15 06:28:10;;;;;;;19.08;6.30;;;;;;;20.16;87.80;100649.56;5268454;28;20377;-79
2021/08/15 06:30:41;;;;;;;19.23;7.10;;;;;;;20.67;85.44;100648.31;5270087;28;20421;-79
2021/08/15 06:33:11;;;;;;;17.02;6.60;;;;;;;21.35;84.77;100651.84;5268918;28;20032;-79
2021/08/15 06:35:41;;;;;;;15.07;6.10;;;;;;;21.60;81.61;100651.63;5270178;28;20028;-79
2021/08/15 06:38:12;;;;;;;14.47;6.30;;;;;;;21.48;81.94;100655.25;5265486;28;20357;-79
2021/08/15 06:40:42;;;;;;;18.77;6.10;;;;;;;21.63;82.16;100654.06;5251553;28;20277;-79
2021/08/15 06:43:12;;;;;;;16.55;6.28;;;;;;;22.41;78.63;100642.31;5268833;28;20357;-79
2021/08/15 06:45:44;;;;;;;13.82;5.65;;;;;;;22.54;76.19;100648.28;5251211;28;20036;-79
2021/08/15 06:48:14;;;;;;;16.63;6.20;;;;;;;21.26;82.58;100642.78;5250206;28;20039;-79
2021/08/15 06:50:44;;;;;;;17.63;5.88;;;;;;;20.41;85.73;100651.25;5269048;28;20032;-78
2021/08/15 06:53:15;;;;;;;15.70;6.20;;;;;;;21.55;82.31;100643.19;5268818;28;20023;-79
2021/08/15 06:55:45;;;;;;;16.27;5.50;;;;;;;22.15;80.80;100633.78;5268749;28;20461;-79
2021/08/15 06:58:16;;;;;;;14.57;5.67;;;;;;;22.41;79.30;100644.97;5249341;28;20377;-79
2021/08/15 07:00:47;;;;;;;12.75;5.95;;;;;;;21.73;81.24;100642.56;5250562;28;20765;-79
2021/08/15 07:03:17;;;;;;;12.00;5.05;;;;;;;22.59;80.78;100638.09;5268493;28;20118;-79
2021/08/15 07:05:48;;;;;;;14.02;5.38;;;;;;;23.24;77.06;100631.53;5269184;28;20032;-79
2021/08/15 07:08:19;;;;;;;12.98;5.43;;;;;;;24.90;71.69;100630.44;5250138;28;20027;-79
2021/08/15 07:10:49;;;;;;;15.40;5.45;;;;;;;24.15;71.91;100630.44;5268644;28;20078;-79
2021/08/15 07:13:22;;;;;;;11.80;5.20;;;;;;;23.94;72.51;100624.34;5268985;28;20423;-79
2021/08/15 07:15:53;;;;;;;16.08;5.32;;;;;;;24.10;73.15;100611.31;5250439;28;20020;-79
2021/08/15 07:18:23;;;;;;;14.95;5.35;;;;;;;24.73;70.44;100619.63;5267811;28;20489;-79
2021/08/15 07:20:57;;;;;;;11.10;5.03;;;;;;;25.00;70.42;100628.56;5268752;28;20032;-79
2021/08/15 07:23:27;;;;;;;17.13;5.10;;;;;;;26.13;67.73;100625.56;5246379;28;20285;-79
2021/08/15 07:25:58;;;;;;;12.18;5.25;;;;;;;26.52;66.45;100629.69;5249792;28;20024;-79
2021/08/15 07:28:29;;;;;;;14.77;5.32;;;;;;;25.31;69.83;100639.94;5268724;28;20035;-79
2021/08/15 07:30:59;;;;;;;13.85;5.22;;;;;;;26.86;65.09;100626.94;5268769;28;20031;-80
2021/08/15 07:33:29;;;;;;;16.75;5.45;;;;;;;23.87;72.08;100633.91;5268869;28;20059;-79
2021/08/15 07:36:00;;;;;;;14.90;5.87;;;;;;;25.05;70.47;100628.16;5268096;28;20024;-79
2021/08/15 07:38:30;;;;;;;14.27;5.40;;;;;;;24.53;70.26;100625.16;5268321;28;20834;-79
2021/08/15 07:41:00;;;;;;;12.83;5.50;;;;;;;24.84;71.12;100625.66;5268061;28;20076;-79
2021/08/15 07:43:30;;;;;;;15.10;5.20;;;;;;;24.59;72.20;100624.56;5267673;28;20433;-79
2021/08/15 07:46:01;;;;;;;12.68;5.20;;;;;;;24.37;71.63;100625.66;5268159;28;20292;-79
2021/08/15 07:48:31;;;;;;;15.27;5.68;;;;;;;24.71;71.23;100612.75;5267669;28;20039;-79
2021/08/15 07:51:02;;;;;;;15.32;6.15;;;;;;;23.93;72.89;100615.53;5267243;28;20028;-80
2021/08/15 07:53:32;;;;;;;16.58;6.10;;;;;;;24.02;73.99;100614.69;5265558;28;20028;-80
2021/08/15 07:56:03;;;;;;;19.10;6.10;;;;;;;23.86;74.57;100609.03;5265332;28;20050;-79
2021/08/15 07:58:35;;;;;;;16.65;6.65;;;;;;;23.13;76.84;100604.94;5266212;28;20278;-79
2021/08/15 08:01:06;;;;;;;17.40;6.53;;;;;;;22.86;77.86;100616.13;5249061;28;20081;-79
2021/08/15 08:03:36;;;;;;;16.27;6.03;;;;;;;23.03;77.08;100606.69;5245415;28;20031;-79
2021/08/15 08:06:07;;;;;;;16.55;6.45;;;;;;;23.09;77.21;100601.69;5263340;28;20028;-79
2021/08/15 08:08:37;;;;;;;18.05;6.18;;;;;;;24.02;74.81;100601.31;5266465;28;20043;-80
2021/08/15 08:11:07;;;;;;;16.77;5.97;;;;;;;25.41;71.05;100588.06;5266808;28;20503;-79
2021/08/15 08:13:37;;;;;;;12.93;5.87;;;;;;;25.70;70.52;100590.56;5267499;28;20417;-79
2021/08/15 08:16:08;;;;;;;14.67;6.20;;;;;;;24.91;69.08;100588.47;5263865;28;20316;-79
2021/08/15 08:18:38;;;;;;;13.17;5.27;;;;;;;24.97;70.21;100583.41;5243634;28;20306;-79
2021/08/15 08:21:08;;;;;;;11.83;5.50;;;;;;;24.89;69.78;100587.78;5264482;28;20281;-79
2021/08/15 08:23:38;;;;;;;16.33;5.77;;;;;;;24.85;68.82;100599.75;5263782;28;20629;-79
2021/08/15 08:26:09;;;;;;;13.07;5.75;;;;;;;24.85;70.19;100615.81;5246714;28;20362;-79
2021/08/15 08:28:39;;;;;;;17.75;5.82;;;;;;;24.24;71.89;100608.22;5265574;28;20186;-79
2021/08/15 08:31:09;;;;;;;13.43;5.40;;;;;;;24.67;70.87;100592.63;5263146;28;20031;-79
2021/08/15 08:33:39;;;;;;;14.40;5.65;;;;;;;24.37;70.62;100588.25;5244068;28;20339;-79
2021/08/15 08:36:10;;;;;;;12.90;5.45;;;;;;;24.21;71.67;100574.63;5264057;28;20028;-79
2021/08/15 08:38:40;;;;;;;11.93;5.10;;;;;;;24.46;71.29;100575.88;5264909;28;20031;-79
2021/08/15 08:41:14;;;;;;;14.88;5.95;;;;;;;23.91;72.64;100596.09;5263399;28;20040;-79
2021/08/15 08:43:46;;;;;;;11.95;5.60;;;;;;;23.85;71.64;100591.31;5243984;28;20035;-79
2021/08/15 08:46:18;;;;;;;11.57;5.43;;;;;;;24.54;69.80;100595.59;5262134;28;20071;-79
2021/08/15 08:48:48;;;;;;;13.18;6.05;;;;;;;24.51;69.87;100593.19;5263667;28;20953;-79
2021/08/15 08:51:22;;;;;;;13.13;5.90;;;;;;;24.95;68.94;100588.06;5264358;28;20122;-79
2021/08/15 08:53:53;;;;;;;12.80;5.50;;;;;;;26.64;64.14;100580.16;5264706;28;20023;-79
2021/08/15 08:56:24;;;;;;;13.43;5.30;;;;;;;26.27;65.15;100587.50;5264881;28;20036;-79
2021/08/15 08:58:54;;;;;;;12.18;5.20;;;;;;;25.93;66.49;100575.78;5246151;28;20069;-79
2021/08/15 09:01:24;;;;;;;13.57;5.30;;;;;;;27.02;63.97;100561.81;5262803;28;20435;-79
2021/08/15 09:03:55;;;;;;;14.23;5.28;;;;;;;28.03;64.58;100558.06;5265485;28;20305;-79
2021/08/15 09:06:28;;;;;;;14.32;5.50;;;;;;;27.11;62.48;100559.03;5264569;28;20051;-79
2021/08/15 09:09:10;;;;;;;10.77;5.13;;;;;;;28.00;61.60;100563.75;5262225;28;20109;-79
2021/08/15 09:11:43;;;;;;;14.30;5.47;;;;;;;27.79;62.35;100557.97;5265197;28;20494;-79
2021/08/15 09:14:17;;;;;;;11.38;5.10;;;;;;;26.94;63.67;100572.50;5244927;28;20020;-79
2021/08/15 09:16:57;;;;;;;13.68;4.82;;;;;;;26.70;62.81;100561.59;5263627;28;20040;-79
2021/08/15 09:19:34;;;;;;;10.60;4.88;;;;;;;26.17;65.14;100560.78;5246059;28;20239;-79
2021/08/15 09:22:21;;;;;;;14.32;4.85;;;;;;;26.38;64.28;100558.63;5262245;28;20039;-79
2021/08/15 09:24:58;;;;;;;10.45;4.80;;;;;;;26.83;62.73;100544.09;5239307;28;20127;-79
2021/08/15 09:27:31;;;;;;;12.02;4.80;;;;;;;27.36;63.48;100546.56;5242769;28;20047;-79
2021/08/15 09:30:07;;;;;;;12.23;4.50;;;;;;;27.37;62.17;100551.78;5263809;28;20430;-79
2021/08/15 09:33:01;;;;;;;13.10;4.65;;;;;;;27.03;62.93;100539.31;5264574;28;20036;-79
2021/08/15 09:35:34;;;;;;;12.18;5.15;;;;;;;26.96;62.41;100544.47;5256331;28;20109;-79
2021/08/15 09:38:11;;;;;;;11.80;4.93;;;;;;;26.54;64.42;100537.34;5243430;28;20028;-79
2021/08/15 09:40:48;;;;;;;13.68;4.43;;;;;;;26.69;64.24;100537.63;5264657;28;20024;-79
2021/08/15 09:43:28;;;;;;;12.15;3.80;;;;;;;26.48;65.42;100531.75;5243233;28;20463;-79
2021/08/15 09:46:00;;;;;;;12.88;4.93;;;;;;;25.79;65.46;100533.41;5260506;28;20080;-79
2021/08/15 09:48:39;;;;;;;11.05;4.53;;;;;;;25.97;66.56;100540.50;5244699;28;20039;-79
2021/08/15 09:51:22;;;;;;;10.65;4.38;;;;;;;26.27;66.74;100539.25;5246959;28;20028;-79
2021/08/15 09:53:55;;;;;;;13.52;4.60;;;;;;;26.60;66.05;100535.88;5244482;28;20105;-79
2021/08/15 09:56:33;;;;;;;11.32;4.45;;;;;;;26.73;64.71;100532.63;5263238;28;20023;-79
2021/08/15 09:59:13;;;;;;;8.40;4.10;;;;;;;26.78;64.67;100529.47;5261990;28;20028;-79
2021/08/15 10:01:48;;;;;;;9.98;4.32;;;;;;;27.48;64.58;100524.63;5263409;28;20024;-79
2021/08/15 10:04:20;;;;;;;11.20;4.65;;;;;;;27.45;63.27;100511.53;5262746;28;20413;-79
2021/08/15 10:06:53;;;;;;;9.63;4.10;;;;;;;27.96;61.40;100521.25;5245033;28;20028;-80
2021/08/15 10:09:26;;;;;;;12.23;4.43;;;;;;;27.13;64.10;100515.94;5249014;28;20120;-79
2021/08/15 10:11:57;;;;;;;12.25;4.53;;;;;;;28.40;61.71;100512.72;5262967;28;20103;-79
2021/08/15 10:14:27;;;;;;;9.65;4.50;;;;;;;28.26;59.76;100505.28;5264411;28;20228;-79
2021/08/15 10:17:01;;;;;;;12.10;4.33;;;;;;;28.01;61.78;100511.69;5265164;28;20016;-79
2021/08/15 10:19:54;;;;;;;8.60;4.15;;;;;;;27.50;62.38;100517.25;5259892;28;20286;-79
2021/08/15 10:22:30;;;;;;;10.90;4.22;;;;;;;27.76;61.93;100506.44;5243839;28;20061;-79
2021/08/15 10:25:04;;;;;;;10.52;4.05;;;;;;;27.81;62.04;100504.09;5264265;28;20050;-79
2021/08/15 10:27:40;;;;;;;10.18;4.43;;;;;;;27.23;62.22;100495.16;5265092;28;20488;-79
2021/08/15 10:30:14;;;;;;;10.00;4.10;;;;;;;27.00;62.58;100502.94;5245895;28;20361;-79
2021/08/15 10:32:56;;;;;;;12.70;4.25;;;;;;;26.60;63.01;100503.69;5263916;28;20028;-78
2021/08/15 10:35:30;;;;;;;12.75;4.25;;;;;;;26.53;63.79;100491.94;5262317;28;20061;-79
2021/08/15 10:38:28;;;;;;;10.73;4.00;;;;;;;26.59;66.10;100488.59;5248929;28;20016;-79
2021/08/15 10:40:59;;;;;;;9.35;3.60;;;;;;;26.58;63.26;100487.78;5247335;28;20119;-78
2021/08/15 10:43:32;;;;;;;8.93;3.45;;;;;;;26.73;63.71;100476.28;5244804;28;20151;-79
2021/08/15 10:46:10;;;;;;;6.75;3.20;;;;;;;26.92;63.92;100473.38;5264750;28;20038;-79
2021/08/15 10:48:52;;;;;;;9.38;3.50;;;;;;;26.94;62.17;100473.22;5263951;28;20111;-79
2021/08/15 10:51:43;;;;;;;10.38;3.28;;;;;;;27.69;61.13;100462.38;5248148;28;20042;-79
2021/08/15 10:54:48;;;;;;;8.65;3.75;;;;;;;27.81;61.32;100472.66;5264874;28;20119;-79
2021/08/15 10:57:34;;;;;;;7.20;3.22;;;;;;;27.99;60.45;100464.47;5245789;28;20046;-79
2021/08/15 11:00:23;;;;;;;;;;;;;;;27.58;61.30;100462.72;5265722;28;20040;-79
2021/08/15 11:02:54;;;;;;;8.95;3.53;;;;;;;27.55;61.57;100450.47;5263651;28;19951;-79
2021/08/15 11:05:35;;;;;;;7.97;3.58;;;;;;;27.26;62.09;100442.00;5244524;28;20127;-79
2021/08/15 11:08:31;;;;;;;10.50;3.53;;;;;;;27.38;61.38;100446.06;5262165;28;20532;-79
2021/08/15 11:11:08;;;;;;;8.70;3.47;;;;;;;27.09;62.19;100445.59;5260319;28;20040;-79
2021/08/15 11:13:39;;;;;;;8.25;3.70;;;;;;;26.90;66.06;100445.03;5244299;28;20040;-79
2021/08/15 11:16:27;;;;;;;7.25;3.60;;;;;;;26.67;64.15;100435.84;5261578;28;20140;-79
2021/08/15 11:19:10;;;;;;;11.25;3.83;;;;;;;26.83;64.60;100442.16;5259409;28;20146;-79
2021/08/15 11:21:59;;;;;;;7.10;3.35;;;;;;;26.95;63.00;100429.28;5245258;28;20073;-79
2021/08/15 11:24:32;;;;;;;9.30;3.65;;;;;;;26.97;60.90;100427.28;5259942;28;20016;-79
2021/08/15 11:27:04;;;;;;;6.40;3.60;;;;;;;27.28;62.98;100431.91;5259069;28;20047;-79
2021/08/15 11:29:37;;;;;;;9.85;3.70;;;;;;;27.09;61.55;100436.72;5245021;28;20334;-79
2021/08/15 11:32:14;;;;;;;8.20;3.22;;;;;;;27.17;62.09;100434.06;5262527;28;20040;-79
2021/08/15 11:34:50;;;;;;;9.30;3.50;;;;;;;27.53;62.05;100444.41;5259536;28;20043;-79
2021/08/15 11:37:25;;;;;;;9.10;4.07;;;;;;;27.75;61.84;100438.41;5262656;28;20043;-79
2021/08/15 11:39:56;;;;;;;8.68;3.95;;;;;;;27.72;62.46;100430.69;5244866;28;20103;-79